Terminal Aerodrome Forecast
Issued by NWS Charleston, WV

Current Version | Previous Version | Graphics & Text | Print | Product List | Glossary On
Versions: 1 2 3 4 5 6 7 8 9 10 11 12 13 14 15 16 17 18 19 20 21
000
FTUS41 KRLX 180200 AAA
TAFHTS
TAF AMD
KHTS 180252Z 1803/1824 28006KT P6SM BKN025
     FM181000 29003KT P6SM SCT025 BKN100
     FM182000 27003KT P6SM BKN035
     FM182200 29003KT P6SM BKN030=

USA.gov is the U.S. government's official web portal to all federal, state and local government web resources and services.